Open Full Screen Window  High Contrast Mode
Wind Gusting 00 knots
07
August 30, 2016 3:40 PM CDT
Weather Information
Wind Direction
  090 °
Wind Speed
  07 kt (8 mph)
Wind Gust
  00 kt (0 mph)
Altimeter
30.21 in
Visibility
10 SM
Temperature
26° C
79° F
Dewpoint
22° C
72° F
Humidity
79%
1hr Rain Fall
00.00 in.
24hr Rain Fall
00.00 in.
Sky Condition
Few @ 2,800 ft
VFR

METAR KMDS 302040Z AUTO 09007KT 10SM FEW028 26/22 A3021 RMK AO2

*Background is not an actual portrayal of the airport.